Time;durP1;ratioP1;P1;durP2;ratioP2;P2;SDS_P1;SDS_P2;PMS_P1;PMS_P2;Temp;Humidity;BMP_temperature;BMP_pressure;BME280_temperature;BME280_humidity;BME280_pressure;Samples;Min_cycle;Max_cycle;Signal;HPM_P1;HPM_P2
2022/06/14 00:02:57;;;;;;;5.03;3.03;;;13.80;90.30;;;;;;5052838;28;20446;-85
2022/06/14 00:05:43;;;;;;;7.40;2.93;;;13.80;89.90;;;;;;5069201;28;20969;-86
2022/06/14 00:08:29;;;;;;;4.10;2.47;;;13.90;89.20;;;;;;5070228;28;20488;-85
2022/06/14 00:11:17;;;;;;;3.90;2.50;;;13.90;89.30;;;;;;5073131;28;20462;-85
2022/06/14 00:14:06;;;;;;;9.60;3.27;;;13.80;90.00;;;;;;5073551;22;20499;-72
2022/06/14 00:16:52;;;;;;;6.30;2.93;;;13.60;90.30;;;;;;5045564;28;20449;-72
2022/06/14 00:19:38;;;;;;;3.37;2.83;;;13.60;90.20;;;;;;5033045;28;20441;-71
2022/06/14 00:22:23;;;;;;;5.00;3.27;;;13.40;90.50;;;;;;5027434;28;21005;-72
2022/06/14 00:25:24;;;;;;;4.47;2.80;;;13.40;90.70;;;;;;5030227;28;20546;-72
2022/06/14 00:28:13;;;;;;;3.47;2.47;;;13.50;90.80;;;;;;5032566;28;21039;-73
2022/06/14 00:31:02;;;;;;;6.83;2.63;;;13.40;90.60;;;;;;5035067;28;20804;-73
2022/06/14 00:33:48;;;;;;;11.93;2.93;;;13.40;90.50;;;;;;5032336;28;20451;-73
2022/06/14 00:36:35;;;;;;;9.00;2.73;;;13.20;90.90;;;;;;5032754;28;20495;-73
2022/06/14 00:39:21;;;;;;;3.53;2.90;;;13.10;91.20;;;;;;5030290;28;20445;-74
2022/06/14 00:42:10;;;;;;;4.37;3.07;;;13.10;91.40;;;;;;5030815;28;20445;-73
2022/06/14 00:45:04;;;;;;;8.07;3.10;;;13.00;91.70;;;;;;5034102;28;20464;-73
2022/06/14 00:47:57;;;;;;;4.27;2.83;;;13.00;91.90;;;;;;5036685;28;20837;-73
2022/06/14 00:50:50;;;;;;;3.90;2.90;;;13.00;91.90;;;;;;5035974;28;20794;-72
2022/06/14 00:53:43;;;;;;;7.00;3.00;;;13.00;91.90;;;;;;5035741;28;20414;-73
2022/06/14 00:56:34;;;;;;;4.33;3.23;;;13.00;91.90;;;;;;5037182;28;20451;-73
2022/06/14 00:59:25;;;;;;;7.23;3.50;;;13.00;91.90;;;;;;5026328;28;20530;-73
2022/06/14 01:02:17;;;;;;;5.70;2.87;;;13.00;91.90;;;;;;5031149;28;21039;-73
2022/06/14 01:05:09;;;;;;;7.10;2.67;;;12.90;92.10;;;;;;5036891;28;21105;-72
2022/06/14 01:07:58;;;;;;;6.30;3.00;;;12.90;92.00;;;;;;5043299;28;20464;-73
2022/06/14 01:10:47;;;;;;;8.87;2.83;;;13.00;92.00;;;;;;5042979;28;20936;-73
2022/06/14 01:13:32;;;;;;;7.40;3.57;;;13.00;91.70;;;;;;5036443;28;21726;-74
2022/06/14 01:16:18;;;;;;;5.73;3.47;;;13.10;91.70;;;;;;5039587;28;20514;-73
2022/06/14 01:19:08;;;;;;;5.43;3.00;;;12.90;91.90;;;;;;5031994;28;20432;-74
2022/06/14 01:22:22;;;;;;;4.67;3.13;;;12.80;92.20;;;;;;5032033;28;20810;-73
2022/06/14 01:25:10;;;;;;;5.03;3.20;;;12.80;92.40;;;;;;5034998;28;20442;-72
2022/06/14 01:27:56;;;;;;;7.20;2.60;;;12.80;92.30;;;;;;5031030;28;20480;-74
2022/06/14 01:30:45;;;;;;;7.83;2.40;;;12.70;92.50;;;;;;5034596;28;20451;-73
2022/06/14 01:33:35;;;;;;;10.10;3.07;;;12.80;92.60;;;;;;5027547;28;20463;-73
2022/06/14 01:36:25;;;;;;;5.17;2.87;;;12.80;92.50;;;;;;5035131;28;20484;-73
2022/06/14 01:39:16;;;;;;;4.90;3.20;;;12.70;92.50;;;;;;5038473;28;20436;-73
2022/06/14 01:42:13;;;;;;;11.23;3.20;;;12.70;92.70;;;;;;5026624;28;20449;-72
2022/06/14 01:45:05;;;;;;;4.30;2.90;;;12.50;92.90;;;;;;5035634;28;20869;-73
2022/06/14 01:47:58;;;;;;;5.37;2.70;;;12.60;93.10;;;;;;5032094;28;20579;-72
2022/06/14 01:54:02;;;;;;;4.30;2.77;;;12.80;92.60;;;;;;5030228;28;20501;-74
2022/06/14 01:56:59;;;;;;;4.43;2.77;;;12.90;91.80;;;;;;5036683;28;20547;-73
2022/06/14 01:59:52;;;;;;;4.40;2.80;;;12.90;91.80;;;;;;5033222;28;21038;-73
2022/06/14 02:02:45;;;;;;;3.90;2.77;;;12.70;92.10;;;;;;5031190;28;20451;-73
2022/06/14 02:05:32;;;;;;;5.93;2.80;;;12.70;92.30;;;;;;5035449;28;20472;-73
2022/06/14 02:08:21;;;;;;;3.17;2.43;;;12.50;92.60;;;;;;5031185;28;20467;-73
2022/06/14 02:11:12;;;;;;;5.73;3.03;;;12.40;92.80;;;;;;5032064;28;20436;-73
2022/06/14 02:14:05;;;;;;;4.73;3.30;;;12.40;93.30;;;;;;5034418;28;20455;-74
2022/06/14 02:16:59;;;;;;;5.10;2.73;;;12.30;93.50;;;;;;5039309;28;20786;-73
2022/06/14 02:19:49;;;;;;;4.50;2.77;;;12.30;93.40;;;;;;5034088;28;20557;-73
2022/06/14 02:22:39;;;;;;;4.00;2.87;;;12.40;93.20;;;;;;5029352;28;20464;-74
2022/06/14 02:25:31;;;;;;;5.03;2.90;;;12.50;92.90;;;;;;5029881;28;20469;-73
2022/06/14 02:28:22;;;;;;;3.83;2.67;;;12.50;92.70;;;;;;5027900;28;20446;-73
2022/06/14 02:31:13;;;;;;;4.17;2.87;;;12.40;92.50;;;;;;5029551;28;20418;-73
2022/06/14 02:34:03;;;;;;;6.20;2.83;;;12.30;93.20;;;;;;5028408;28;20464;-73
2022/06/14 02:36:53;;;;;;;5.00;3.40;;;12.20;93.60;;;;;;5033178;28;20862;-72
2022/06/14 02:39:43;;;;;;;6.07;3.80;;;12.10;93.90;;;;;;5028369;28;20456;-73
2022/06/14 02:42:33;;;;;;;4.30;3.10;;;12.00;94.50;;;;;;5024354;28;20419;-73
2022/06/14 02:45:23;;;;;;;8.13;2.87;;;12.00;94.80;;;;;;5035586;28;20468;-73
2022/06/14 02:48:15;;;;;;;8.83;3.03;;;12.00;94.80;;;;;;5026195;28;20479;-71
2022/06/14 02:51:06;;;;;;;6.13;3.00;;;11.90;95.00;;;;;;5022193;28;21072;-73
2022/06/14 02:53:55;;;;;;;7.07;3.00;;;11.80;95.00;;;;;;5035429;28;20780;-72
2022/06/14 02:56:47;;;;;;;4.23;3.10;;;11.90;95.30;;;;;;5032170;28;20627;-73
2022/06/14 02:59:37;;;;;;;6.50;2.73;;;12.10;96.00;;;;;;5031557;28;20428;-73
2022/06/14 03:02:27;;;;;;;4.20;3.20;;;12.20;95.50;;;;;;5029984;28;20557;-72
2022/06/14 03:05:22;;;;;;;4.17;2.67;;;12.10;95.10;;;;;;5024856;28;20472;-72
2022/06/14 03:08:14;;;;;;;8.63;3.63;;;11.80;95.30;;;;;;5027457;28;20452;-73
2022/06/14 03:11:13;;;;;;;5.87;2.80;;;11.80;95.70;;;;;;5026536;28;20434;-73
2022/06/14 03:14:03;;;;;;;4.10;3.00;;;11.80;95.90;;;;;;5046189;28;20518;-73
2022/06/14 03:16:58;;;;;;;4.67;3.33;;;11.80;96.40;;;;;;5029961;28;20457;-73
2022/06/14 03:19:51;;;;;;;6.40;3.63;;;11.80;96.30;;;;;;5031192;28;20807;-72
2022/06/14 03:22:45;;;;;;;5.10;2.90;;;12.00;95.90;;;;;;5029023;28;20507;-74
2022/06/14 03:25:39;;;;;;;8.17;4.10;;;12.10;96.10;;;;;;5032861;28;20463;-73
2022/06/14 03:28:29;;;;;;;6.33;3.13;;;12.10;96.00;;;;;;5024080;28;20550;-74
2022/06/14 03:31:20;;;;;;;5.20;2.53;;;12.20;95.70;;;;;;5028106;28;20554;-74
2022/06/14 03:34:10;;;;;;;6.40;2.93;;;12.00;95.10;;;;;;5042849;28;20794;-73
2022/06/14 03:36:57;;;;;;;7.40;2.67;;;11.90;95.30;;;;;;5029404;28;20534;-73
2022/06/14 03:39:47;;;;;;;6.57;3.23;;;12.00;96.00;;;;;;5030293;28;20448;-74
2022/06/14 03:42:34;;;;;;;6.83;3.70;;;11.90;95.50;;;;;;5038575;28;20533;-74
2022/06/14 03:45:22;;;;;;;2.90;2.30;;;11.80;95.60;;;;;;5044202;28;20675;-73
2022/06/14 03:48:09;;;;;;;4.73;2.93;;;11.70;95.90;;;;;;5028602;28;20496;-73
2022/06/14 03:51:05;;;;;;;3.73;2.90;;;11.60;96.40;;;;;;5040351;28;20959;-73
2022/06/14 03:54:16;;;;;;;5.37;2.90;;;11.70;96.50;;;;;;5033289;28;20447;-73
2022/06/14 03:57:14;;;;;;;5.47;3.07;;;11.70;96.90;;;;;;5037030;28;20419;-73
2022/06/14 04:00:19;;;;;;;5.30;3.30;;;11.60;97.30;;;;;;5037875;28;20519;-73
2022/06/14 04:03:21;;;;;;;6.40;3.03;;;11.50;98.10;;;;;;5041494;28;20397;-74
2022/06/14 04:06:26;;;;;;;4.00;3.47;;;11.50;98.60;;;;;;5038861;28;20922;-73
2022/06/14 04:09:21;;;;;;;5.07;3.10;;;11.50;99.40;;;;;;5035371;28;20883;-74
2022/06/14 04:12:18;;;;;;;4.83;2.80;;;11.60;99.90;;;;;;5033767;28;20414;-73
2022/06/14 04:15:21;;;;;;;4.93;3.47;;;11.70;99.90;;;;;;5028377;28;20456;-73
2022/06/14 04:21:37;;;;;;;6.17;3.47;;;11.80;99.90;;;;;;5033953;28;20466;-74
2022/06/14 04:24:33;;;;;;;5.87;3.03;;;11.80;99.90;;;;;;5032794;28;20433;-73
2022/06/14 04:27:27;;;;;;;6.53;2.33;;;12.00;99.90;;;;;;5040883;28;20949;-73
2022/06/14 04:30:18;;;;;;;4.10;2.93;;;12.10;99.90;;;;;;5038222;28;20447;-73
2022/06/14 04:33:11;;;;;;;4.93;2.90;;;12.20;99.90;;;;;;5033163;28;20417;-73
2022/06/14 04:36:01;;;;;;;6.20;3.73;;;12.30;99.80;;;;;;5031230;28;20825;-74
2022/06/14 04:38:52;;;;;;;5.27;3.57;;;12.40;99.90;;;;;;5031917;28;20521;-74
2022/06/14 04:41:42;;;;;;;9.13;3.57;;;12.40;99.90;;;;;;5031456;28;20451;-73
2022/06/14 04:44:38;;;;;;;5.40;3.23;;;12.40;99.90;;;;;;5037046;28;20549;-73
2022/06/14 04:47:29;;;;;;;8.77;3.37;;;12.50;99.90;;;;;;5028077;28;20425;-73
2022/06/14 04:50:20;;;;;;;5.93;3.40;;;12.60;99.90;;;;;;5027461;28;20491;-73
2022/06/14 04:53:16;;;;;;;5.63;3.87;;;12.70;99.90;;;;;;5039376;28;20503;-73
2022/06/14 04:56:05;;;;;;;3.97;3.03;;;12.70;99.90;;;;;;5070883;22;20495;-77
2022/06/14 04:58:57;;;;;;;5.73;3.57;;;12.70;99.90;;;;;;5079979;28;20447;-77
2022/06/14 05:01:48;;;;;;;5.17;3.97;;;12.80;99.90;;;;;;5063669;28;20425;-77
2022/06/14 05:04:38;;;;;;;6.00;3.60;;;13.00;99.90;;;;;;5067423;28;20435;-76
2022/06/14 05:07:30;;;;;;;5.50;3.40;;;13.10;99.60;;;;;;5055709;28;21012;-76
2022/06/14 05:10:20;;;;;;;3.97;2.90;;;13.20;99.50;;;;;;5044559;28;20459;-77
2022/06/14 05:13:14;;;;;;;10.33;4.00;;;13.40;99.90;;;;;;5045278;28;20482;-77
2022/06/14 05:16:05;;;;;;;6.90;3.40;;;13.50;99.90;;;;;;5055680;28;20893;-77
2022/06/14 05:18:58;;;;;;;6.63;3.03;;;13.70;99.90;;;;;;5059935;28;21027;-76
2022/06/14 05:21:50;;;;;;;3.43;2.33;;;13.80;99.90;;;;;;5059754;28;20439;-77
2022/06/14 05:24:37;;;;;;;5.37;3.03;;;13.90;99.90;;;;;;5058923;28;20431;-76
2022/06/14 05:27:44;;;;;;;7.10;3.30;;;14.10;99.30;;;;;;5050948;28;20430;-76
2022/06/14 05:30:39;;;;;;;8.47;3.70;;;14.20;99.50;;;;;;5049135;28;20470;-77
2022/06/14 05:33:33;;;;;;;6.10;3.00;;;14.40;98.90;;;;;;5057667;28;20479;-76
2022/06/14 05:36:25;;;;;;;4.00;2.97;;;14.50;96.70;;;;;;5055347;28;20900;-74
2022/06/14 05:39:19;;;;;;;7.60;3.37;;;14.60;97.90;;;;;;5054683;28;20414;-75
2022/06/14 05:42:11;;;;;;;6.53;3.03;;;14.70;98.40;;;;;;5050978;28;20442;-75
2022/06/14 05:45:01;;;;;;;5.80;2.73;;;14.80;97.70;;;;;;5054671;28;20467;-75
2022/06/14 05:47:50;;;;;;;5.43;3.00;;;14.90;97.20;;;;;;5048516;28;20782;-75
2022/06/14 05:50:39;;;;;;;4.40;2.60;;;15.00;97.10;;;;;;5047652;28;21130;-75
2022/06/14 05:53:33;;;;;;;3.77;2.73;;;15.20;97.70;;;;;;5051554;28;20525;-75
2022/06/14 05:56:26;;;;;;;5.00;2.73;;;15.30;97.60;;;;;;5055676;28;20846;-75
2022/06/14 05:59:20;;;;;;;5.20;3.27;;;15.40;98.10;;;;;;5050204;28;20536;-76
2022/06/14 06:02:15;;;;;;;11.20;3.30;;;15.50;97.80;;;;;;5057300;28;20598;-75
2022/06/14 06:05:07;;;;;;;6.93;2.90;;;15.70;97.40;;;;;;5049188;28;20944;-76
2022/06/14 06:07:57;;;;;;;5.93;2.73;;;15.80;98.40;;;;;;5048689;28;21103;-74
2022/06/14 06:10:47;;;;;;;6.17;2.70;;;15.90;98.20;;;;;;5045076;28;20550;-76
2022/06/14 06:13:39;;;;;;;6.17;3.00;;;15.90;98.20;;;;;;5045492;28;20459;-75
2022/06/14 06:16:33;;;;;;;4.10;3.00;;;16.00;97.50;;;;;;5045730;28;20968;-76
2022/06/14 06:19:22;;;;;;;4.70;3.10;;;16.20;97.80;;;;;;5052581;28;20595;-75
2022/06/14 06:22:14;;;;;;;5.10;3.10;;;16.30;97.80;;;;;;5059479;28;20432;-75
2022/06/14 06:25:05;;;;;;;5.23;3.30;;;16.40;97.10;;;;;;5058780;28;20498;-75
2022/06/14 06:27:59;;;;;;;4.63;3.30;;;16.50;96.60;;;;;;5052371;28;20526;-75
2022/06/14 06:30:51;;;;;;;9.87;3.20;;;16.60;96.10;;;;;;5058317;28;20450;-75
2022/06/14 06:33:41;;;;;;;4.97;3.20;;;16.70;94.80;;;;;;5056212;28;20416;-75
2022/06/14 06:36:42;;;;;;;7.07;2.40;;;16.80;94.40;;;;;;5056976;28;20418;-76
2022/06/14 06:39:44;;;;;;;4.57;2.60;;;17.00;94.20;;;;;;5049542;28;20453;-76
2022/06/14 06:42:34;;;;;;;11.73;3.23;;;17.20;94.10;;;;;;5051761;28;20439;-75
2022/06/14 06:45:23;;;;;;;11.47;3.60;;;17.40;92.90;;;;;;5059488;28;21009;-75
2022/06/14 06:48:15;;;;;;;13.97;3.00;;;17.50;91.90;;;;;;5051840;28;20486;-75
2022/06/14 06:51:06;;;;;;;7.33;2.83;;;17.60;92.20;;;;;;5049239;28;20574;-76
2022/06/14 06:53:59;;;;;;;14.30;3.27;;;17.80;90.90;;;;;;5055375;28;20535;-76
2022/06/14 06:56:50;;;;;;;10.00;3.27;;;17.80;84.50;;;;;;5053181;28;20547;-76
2022/06/14 06:59:40;;;;;;;7.67;3.00;;;17.90;83.50;;;;;;5051619;28;20456;-75
2022/06/14 07:02:32;;;;;;;6.73;2.87;;;17.90;79.80;;;;;;5054706;28;20493;-76
2022/06/14 07:05:19;;;;;;;6.73;3.80;;;18.10;80.70;;;;;;5055033;28;20425;-75
2022/06/14 07:08:08;;;;;;;5.63;3.10;;;18.20;79.20;;;;;;5048462;28;20454;-75
2022/06/14 07:10:55;;;;;;;4.73;2.50;;;18.30;74.00;;;;;;5062589;28;20448;-75
2022/06/14 07:13:50;;;;;;;7.27;2.83;;;18.40;75.10;;;;;;5065062;28;20447;-76
2022/06/14 07:16:41;;;;;;;5.27;2.90;;;18.60;71.60;;;;;;5060117;28;20450;-76
2022/06/14 07:19:40;;;;;;;6.70;3.13;;;18.70;71.50;;;;;;5048683;28;20470;-75
2022/06/14 07:22:32;;;;;;;6.73;2.40;;;18.80;73.80;;;;;;5056759;28;20421;-75
2022/06/14 07:25:22;;;;;;;9.60;2.43;;;18.90;69.20;;;;;;5060598;28;20502;-76
2022/06/14 07:28:13;;;;;;;14.43;3.17;;;19.00;66.60;;;;;;5054047;28;20440;-75
2022/06/14 07:31:05;;;;;;;7.67;2.47;;;19.10;64.60;;;;;;5068868;28;20471;-75
2022/06/14 07:33:50;;;;;;;6.67;2.53;;;19.20;63.90;;;;;;5065206;28;20517;-75
2022/06/14 07:36:53;;;;;;;5.43;1.97;;;19.40;60.00;;;;;;5059471;28;20451;-75
2022/06/14 07:39:43;;;;;;;3.80;1.93;;;19.50;52.80;;;;;;5054579;28;20505;-75
2022/06/14 07:42:36;;;;;;;5.37;1.83;;;19.70;48.00;;;;;;5066042;28;20434;-76
2022/06/14 07:45:28;;;;;;;4.57;1.80;;;19.80;40.80;;;;;;5057086;28;20501;-76
2022/06/14 07:48:18;;;;;;;7.00;2.43;;;19.90;41.90;;;;;;5048094;28;20493;-77
2022/06/14 07:51:10;;;;;;;4.93;2.10;;;20.00;38.20;;;;;;5046914;28;20467;-77
2022/06/14 07:54:01;;;;;;;7.10;2.33;;;19.90;41.30;;;;;;5058637;28;20431;-76
2022/06/14 07:56:53;;;;;;;5.63;1.83;;;19.90;40.90;;;;;;5053586;28;20462;-76
2022/06/14 07:59:42;;;;;;;6.00;2.07;;;19.90;36.10;;;;;;5055928;28;20770;-76
2022/06/14 08:02:32;;;;;;;8.63;3.30;;;19.90;36.70;;;;;;5058229;28;20463;-76
2022/06/14 08:05:22;;;;;;;7.80;2.30;;;19.90;38.50;;;;;;5058984;28;20847;-77
2022/06/14 08:08:13;;;;;;;4.60;1.90;;;20.10;39.70;;;;;;5052171;28;20439;-76
2022/06/14 08:11:06;;;;;;;4.50;2.10;;;20.20;35.40;;;;;;5063414;28;20545;-77
2022/06/14 08:13:56;;;;;;;7.47;2.00;;;20.20;36.60;;;;;;5060397;28;20562;-77
2022/06/14 08:16:45;;;;;;;4.00;2.10;;;20.40;37.10;;;;;;5055232;28;20954;-76
2022/06/14 08:19:36;;;;;;;11.13;2.23;;;20.50;36.10;;;;;;5056656;28;20411;-77
2022/06/14 08:22:28;;;;;;;8.03;1.93;;;20.60;37.30;;;;;;5054527;28;20427;-77
2022/06/14 08:25:18;;;;;;;4.10;1.90;;;20.70;35.80;;;;;;5045793;28;20506;-76
2022/06/14 08:28:15;;;;;;;5.07;1.70;;;20.80;35.00;;;;;;5045850;28;20513;-77
2022/06/14 08:31:05;;;;;;;4.80;2.03;;;20.90;34.60;;;;;;5057539;28;20477;-77
2022/06/14 08:33:56;;;;;;;5.13;1.97;;;21.00;35.00;;;;;;5052056;28;20614;-76
2022/06/14 08:36:50;;;;;;;4.00;2.10;;;21.00;34.20;;;;;;5057503;28;20468;-76
2022/06/14 08:39:40;;;;;;;4.60;2.50;;;21.10;35.20;;;;;;5052743;28;20451;-76
2022/06/14 08:42:31;;;;;;;2.60;1.47;;;21.20;35.60;;;;;;5050825;28;20451;-76
2022/06/14 08:45:28;;;;;;;6.00;2.63;;;21.30;34.30;;;;;;5066277;28;21577;-77
2022/06/14 08:48:32;;;;;;;6.80;2.87;;;21.20;33.60;;;;;;5060401;28;20442;-76
2022/06/14 08:51:32;;;;;;;5.50;2.00;;;21.30;33.60;;;;;;5058835;28;21001;-74
2022/06/14 08:55:03;;;;;;;7.40;2.27;;;21.40;34.00;;;;;;5050313;28;20972;-76
2022/06/14 08:58:13;;;;;;;8.17;2.00;;;21.40;33.00;;;;;;5045802;28;20602;-76
2022/06/14 09:01:11;;;;;;;5.20;2.00;;;21.40;33.00;;;;;;5058903;28;20505;-77
2022/06/14 09:04:31;;;;;;;7.33;2.53;;;21.50;33.10;;;;;;5056282;28;20451;-76
2022/06/14 09:07:35;;;;;;;9.33;2.70;;;21.60;34.40;;;;;;5052480;28;20575;-76
2022/06/14 09:10:37;;;;;;;4.20;2.23;;;21.80;35.60;;;;;;5059428;28;20494;-76
2022/06/14 09:13:56;;;;;;;9.03;2.37;;;21.90;33.20;;;;;;5057322;28;20442;-76
2022/06/14 09:17:11;;;;;;;5.03;2.30;;;21.90;33.60;;;;;;5051941;28;20475;-76
2022/06/14 09:20:03;;;;;;;3.80;2.60;;;22.00;34.90;;;;;;5051241;28;20454;-76
2022/06/14 09:23:01;;;;;;;9.70;2.40;;;21.90;33.80;;;;;;5051870;28;20452;-76
2022/06/14 09:26:14;;;;;;;3.63;2.00;;;21.90;33.20;;;;;;5046942;28;20504;-77
2022/06/14 09:29:46;;;;;;;5.03;3.03;;;21.90;35.50;;;;;;5056248;28;20808;-77
2022/06/14 09:33:13;;;;;;;4.97;2.50;;;21.90;33.50;;;;;;5050587;28;20439;-77
2022/06/14 09:36:41;;;;;;;17.00;2.73;;;21.90;33.20;;;;;;5056562;28;20823;-76
2022/06/14 09:40:00;;;;;;;8.53;2.60;;;21.80;32.40;;;;;;5011679;28;20502;-77
2022/06/14 09:43:21;;;;;;;5.83;2.10;;;21.80;34.10;;;;;;5059374;28;20919;-77
2022/06/14 09:46:31;;;;;;;5.90;2.80;;;22.00;35.00;;;;;;5048038;28;20843;-77
2022/06/14 09:50:01;;;;;;;6.43;2.00;;;22.20;33.00;;;;;;5052504;28;20807;-76
2022/06/14 09:53:24;;;;;;;7.93;2.77;;;22.30;33.00;;;;;;5035353;28;20787;-76
2022/06/14 09:56:32;;;;;;;5.87;2.57;;;22.50;33.30;;;;;;5039246;28;20586;-76
2022/06/14 09:59:39;;;;;;;4.73;1.90;;;22.60;34.10;;;;;;5050908;28;20494;-76
2022/06/14 10:02:38;;;;;;;6.43;2.00;;;22.70;33.20;;;;;;5057471;28;21014;-77
2022/06/14 10:05:45;;;;;;;5.93;2.40;;;22.90;31.90;;;;;;5051190;28;20467;-77
2022/06/14 10:08:49;;;;;;;5.83;2.33;;;22.90;30.20;;;;;;5048380;28;20451;-77
2022/06/14 10:11:47;;;;;;;3.13;1.90;;;23.00;30.70;;;;;;5055352;28;21131;-76
2022/06/14 10:14:48;;;;;;;5.67;2.27;;;23.00;30.80;;;;;;5051204;28;20994;-77
2022/06/14 10:18:01;;;;;;;4.33;1.97;;;23.20;29.00;;;;;;5052472;28;20458;-76
2022/06/14 10:20:56;;;;;;;3.87;2.03;;;23.20;29.90;;;;;;5053851;28;20451;-76
2022/06/14 10:23:56;;;;;;;8.20;2.30;;;23.30;29.10;;;;;;5048867;28;20482;-76
2022/06/14 10:30:06;;;;;;;6.37;2.30;;;23.50;28.20;;;;;;5053369;28;20502;-76
2022/06/14 10:33:26;;;;;;;4.60;2.00;;;23.60;28.40;;;;;;5049695;28;20491;-77
2022/06/14 10:36:36;;;;;;;4.40;1.90;;;23.60;28.50;;;;;;5046831;28;21109;-77
2022/06/14 10:39:52;;;;;;;5.93;3.03;;;23.60;27.40;;;;;;5052091;28;20551;-77
2022/06/14 10:42:43;;;;;;;4.00;2.00;;;23.60;25.40;;;;;;5051519;28;20444;-76
2022/06/14 10:45:32;;;;;;;4.90;2.00;;;23.70;24.40;;;;;;5049351;28;20483;-77
2022/06/14 10:48:46;;;;;;;5.10;2.13;;;23.70;24.20;;;;;;5050192;28;20513;-77
2022/06/14 10:52:04;;;;;;;5.53;1.50;;;23.60;25.10;;;;;;5052146;28;20475;-77
2022/06/14 10:55:03;;;;;;;8.83;2.20;;;23.60;22.80;;;;;;5041793;28;20471;-77
2022/06/14 10:58:06;;;;;;;4.77;2.40;;;23.60;24.60;;;;;;5065509;22;20577;-77
2022/06/14 11:00:59;;;;;;;7.60;2.00;;;23.80;22.10;;;;;;5053059;28;20443;-77
2022/06/14 11:03:54;;;;;;;3.80;1.80;;;23.60;21.30;;;;;;5048265;28;20785;-77
2022/06/14 11:07:05;;;;;;;3.50;1.87;;;23.80;23.80;;;;;;5047961;28;20467;-75
2022/06/14 11:10:23;;;;;;;4.37;1.83;;;23.90;24.30;;;;;;5056098;28;20435;-75
2022/06/14 11:13:18;;;;;;;3.67;1.70;;;24.00;24.40;;;;;;5045974;28;20459;-74
2022/06/14 11:16:11;;;;;;;5.17;1.80;;;24.10;23.60;;;;;;5044101;28;20459;-75
2022/06/14 11:19:24;;;;;;;3.80;2.13;;;24.30;23.60;;;;;;5056198;28;20423;-76
2022/06/14 11:22:27;;;;;;;5.60;2.23;;;24.30;22.30;;;;;;5047698;28;20533;-76
2022/06/14 11:25:28;;;;;;;5.10;1.90;;;24.30;23.30;;;;;;5050619;28;20450;-75
2022/06/14 11:28:23;;;;;;;3.90;1.93;;;24.50;23.30;;;;;;5053330;28;20455;-74
2022/06/14 11:31:17;;;;;;;4.50;2.10;;;24.60;23.20;;;;;;5046629;28;20518;-75
2022/06/14 11:34:21;;;;;;;9.93;2.47;;;24.70;23.80;;;;;;5041111;28;20443;-74
2022/06/14 11:37:43;;;;;;;3.90;2.13;;;24.80;23.60;;;;;;5052365;28;20474;-75
2022/06/14 11:40:33;;;;;;;3.33;1.60;;;24.80;23.20;;;;;;4978887;28;20952;-76
2022/06/14 11:43:34;;;;;;;3.93;1.63;;;25.00;22.10;;;;;;5047643;28;20455;-73
2022/06/14 11:46:31;;;;;;;4.80;2.13;;;25.00;23.60;;;;;;5052357;28;20541;-75
2022/06/14 11:49:24;;;;;;;5.83;2.90;;;24.90;23.10;;;;;;5040353;28;20447;-73
2022/06/14 11:52:31;;;;;;;3.47;1.80;;;24.80;23.50;;;;;;5049689;28;20474;-74
2022/06/14 11:55:27;;;;;;;5.17;2.03;;;25.00;25.00;;;;;;5038661;28;21231;-73
2022/06/14 11:58:21;;;;;;;9.10;2.40;;;25.20;24.70;;;;;;5042160;28;20955;-75
2022/06/14 12:01:20;;;;;;;4.63;1.87;;;25.40;22.80;;;;;;5049473;28;20422;-75
2022/06/14 12:04:24;;;;;;;4.90;1.80;;;25.50;23.10;;;;;;5046588;28;20444;-74
2022/06/14 12:07:19;;;;;;;4.50;2.47;;;25.60;24.10;;;;;;5053009;28;20920;-74
2022/06/14 12:10:32;;;;;;;5.60;2.47;;;25.80;23.30;;;;;;5053159;28;20498;-74
2022/06/14 12:13:50;;;;;;;6.03;2.40;;;25.90;23.00;;;;;;5051057;28;20431;-74
2022/06/14 12:16:40;;;;;;;3.20;1.73;;;26.10;22.40;;;;;;5056312;28;20805;-75
2022/06/14 12:19:32;;;;;;;8.00;3.03;;;26.10;22.30;;;;;;5050142;28;20428;-74
2022/06/14 12:22:28;;;;;;;3.53;1.90;;;26.20;23.20;;;;;;5050165;28;20508;-75
2022/06/14 12:28:32;;;;;;;7.80;2.47;;;26.30;21.70;;;;;;5055196;28;20438;-75
2022/06/14 12:31:23;;;;;;;4.00;1.70;;;26.40;22.10;;;;;;5048772;28;20464;-75
2022/06/14 12:34:18;;;;;;;4.00;2.03;;;26.40;22.40;;;;;;5038075;28;20443;-74
2022/06/14 12:37:20;;;;;;;8.63;2.40;;;26.50;21.80;;;;;;5051835;28;20776;-75
2022/06/14 12:40:10;;;;;;;6.10;2.03;;;26.40;21.50;;;;;;5058286;28;20960;-75
2022/06/14 12:43:01;;;;;;;7.87;2.47;;;26.60;22.00;;;;;;5056954;28;20463;-75
2022/06/14 12:45:51;;;;;;;4.77;1.97;;;26.80;20.70;;;;;;5059171;28;20503;-75
2022/06/14 12:48:42;;;;;;;4.27;1.90;;;26.90;22.10;;;;;;5061559;28;20447;-75
2022/06/14 12:51:31;;;;;;;6.20;2.80;;;27.00;21.40;;;;;;5048135;28;20495;-76
2022/06/14 12:54:23;;;;;;;4.70;2.03;;;27.00;21.60;;;;;;5047911;28;20494;-75
2022/06/14 12:57:17;;;;;;;8.03;1.90;;;27.00;21.60;;;;;;5059148;28;21037;-75
2022/06/14 13:00:20;;;;;;;4.30;1.90;;;27.20;22.00;;;;;;5059155;28;20446;-76
2022/06/14 13:03:19;;;;;;;5.40;2.07;;;27.20;21.00;;;;;;5047449;28;20447;-75
2022/06/14 13:06:22;;;;;;;3.80;1.83;;;27.10;20.50;;;;;;5056645;28;20928;-75
2022/06/14 13:09:18;;;;;;;5.77;1.90;;;27.10;20.30;;;;;;5052766;28;20473;-75
2022/06/14 13:12:18;;;;;;;4.00;1.77;;;27.00;20.30;;;;;;5050145;28;21037;-77
2022/06/14 13:15:09;;;;;;;7.93;2.83;;;26.80;20.20;;;;;;5049965;28;20942;-77
2022/06/14 13:18:14;;;;;;;6.63;2.10;;;26.90;20.30;;;;;;5055578;28;20525;-78
2022/06/14 13:21:10;;;;;;;8.00;2.33;;;26.90;21.20;;;;;;5061490;28;20428;-77
2022/06/14 13:24:17;;;;;;;6.23;2.20;;;27.10;21.70;;;;;;5053810;28;20452;-77
2022/06/14 13:27:15;;;;;;;4.90;1.73;;;27.20;22.30;;;;;;5064320;28;20809;-77
2022/06/14 13:30:10;;;;;;;9.40;1.90;;;27.30;21.80;;;;;;5069918;28;20419;-77
2022/06/14 13:33:13;;;;;;;9.20;2.00;;;27.50;20.60;;;;;;5049718;28;20843;-77
2022/06/14 13:36:06;;;;;;;4.60;2.10;;;27.70;20.70;;;;;;5060687;28;20478;-77
2022/06/14 13:38:56;;;;;;;8.40;2.77;;;27.80;20.80;;;;;;5060763;28;20432;-77
2022/06/14 13:42:00;;;;;;;3.23;1.73;;;27.90;20.90;;;;;;5062288;28;20420;-76
2022/06/14 13:44:52;;;;;;;19.97;3.03;;;28.00;20.90;;;;;;5057570;28;20447;-77
2022/06/14 13:47:42;;;;;;;7.37;2.00;;;28.00;20.30;;;;;;5063937;28;20803;-76
2022/06/14 13:50:34;;;;;;;12.30;2.13;;;28.00;20.80;;;;;;5055586;28;20534;-77
2022/06/14 13:53:25;;;;;;;5.80;2.43;;;28.00;20.90;;;;;;5044404;28;20517;-76
2022/06/14 13:56:19;;;;;;;4.00;2.30;;;28.20;21.10;;;;;;5051725;28;20471;-76
2022/06/14 13:59:14;;;;;;;4.60;2.13;;;28.20;20.40;;;;;;5055931;28;20416;-76
2022/06/14 14:02:06;;;;;;;4.93;2.00;;;28.20;20.20;;;;;;5056665;28;20447;-77
2022/06/14 14:04:58;;;;;;;5.60;2.53;;;28.20;19.90;;;;;;5059852;28;20422;-77
2022/06/14 14:07:51;;;;;;;6.20;2.10;;;28.20;19.30;;;;;;5057698;28;20575;-77
2022/06/14 14:10:46;;;;;;;4.90;2.10;;;28.20;20.30;;;;;;5063303;28;20435;-77
2022/06/14 14:13:37;;;;;;;4.27;2.23;;;28.10;19.90;;;;;;5052869;28;20798;-78
2022/06/14 14:16:29;;;;;;;11.07;2.03;;;27.80;19.90;;;;;;5061366;28;20626;-77
2022/06/14 14:19:29;;;;;;;3.67;2.10;;;27.50;20.00;;;;;;5044400;28;20621;-74
2022/06/14 14:22:19;;;;;;;7.57;3.00;;;27.50;20.60;;;;;;5035410;28;20818;-73
2022/06/14 14:25:13;;;;;;;4.50;1.73;;;27.60;20.60;;;;;;5047738;28;20427;-74
2022/06/14 14:28:04;;;;;;;4.00;1.90;;;27.50;20.60;;;;;;5053081;28;20455;-73
2022/06/14 14:31:03;;;;;;;3.03;1.83;;;27.70;21.40;;;;;;5051617;28;20457;-73
2022/06/14 14:33:55;;;;;;;6.33;2.23;;;27.90;20.80;;;;;;5046002;28;21074;-74
2022/06/14 14:36:51;;;;;;;5.80;2.20;;;28.20;20.90;;;;;;5050541;28;20614;-73
2022/06/14 14:40:02;;;;;;;8.07;2.77;;;28.30;21.10;;;;;;5045071;28;20443;-73
2022/06/14 14:43:07;;;;;;;8.70;2.00;;;28.20;19.90;;;;;;5043868;28;20948;-74
2022/06/14 14:46:03;;;;;;;12.70;2.43;;;28.10;21.00;;;;;;5046969;28;20460;-75
2022/06/14 14:48:54;;;;;;;6.10;2.10;;;28.30;21.10;;;;;;5048395;28;20998;-73
2022/06/14 14:51:45;;;;;;;3.63;1.83;;;28.30;20.40;;;;;;5045827;28;20472;-73
2022/06/14 14:54:40;;;;;;;5.70;2.33;;;28.30;21.10;;;;;;5050884;28;20443;-73
2022/06/14 14:57:32;;;;;;;4.20;1.60;;;28.30;21.10;;;;;;5050243;28;20467;-73
2022/06/14 15:05:20;;;;;;;6.60;2.30;;;28.50;20.20;;;;;;5054738;28;20444;-73
2022/06/14 15:06:48;;;;;;;6.30;2.50;;;28.70;20.40;;;;;;5051695;28;20503;-73
2022/06/14 15:09:40;;;;;;;3.73;2.30;;;28.80;19.80;;;;;;5051598;28;20521;-73
2022/06/14 15:12:28;;;;;;;6.97;2.17;;;28.80;20.20;;;;;;5045908;28;20467;-73
2022/06/14 15:15:21;;;;;;;5.20;2.27;;;28.80;20.10;;;;;;5046335;28;20830;-71
2022/06/14 15:21:26;;;;;;;4.47;2.47;;;28.70;19.50;;;;;;5025423;28;20472;-71
2022/06/14 15:24:17;;;;;;;4.47;2.30;;;28.60;20.00;;;;;;5055686;28;20904;-71
2022/06/14 15:27:06;;;;;;;5.57;2.40;;;28.40;19.40;;;;;;5051660;28;20964;-71
2022/06/14 15:29:54;;;;;;;5.30;2.40;;;28.30;19.70;;;;;;5060274;28;20431;-71
2022/06/14 15:32:39;;;;;;;3.73;1.87;;;28.30;19.60;;;;;;5048108;28;20517;-69